createdAt,value
2023-01-30T00:01:25.086Z,14.38
2023-01-30T00:03:52.048Z,12.73
2023-01-30T00:06:18.899Z,13.00
2023-01-30T00:08:45.821Z,12.82
2023-01-30T00:11:13.459Z,12.35
2023-01-30T00:13:40.576Z,12.75
2023-01-30T00:16:09.626Z,13.32
2023-01-30T00:18:37.268Z,13.43
2023-01-30T00:21:05.562Z,12.95
2023-01-30T00:23:33.108Z,13.55
2023-01-30T00:26:00.031Z,13.88
2023-01-30T00:28:26.932Z,13.25
2023-01-30T00:30:54.459Z,14.27
2023-01-30T00:33:24.071Z,13.77
2023-01-30T00:35:52.391Z,13.05
2023-01-30T00:38:19.190Z,14.50
2023-01-30T00:40:46.561Z,13.82
2023-01-30T00:43:35.674Z,13.85
2023-01-30T00:46:21.988Z,14.48
2023-01-30T00:48:49.017Z,13.10
2023-01-30T00:51:15.818Z,14.07
2023-01-30T00:53:42.579Z,13.45
2023-01-30T00:56:09.327Z,13.50
2023-01-30T00:58:36.107Z,13.57
2023-01-30T01:01:03.221Z,14.93
2023-01-30T01:03:30.015Z,13.90
2023-01-30T01:05:56.771Z,13.50
2023-01-30T01:08:23.600Z,14.02
2023-01-30T01:10:50.358Z,13.27
2023-01-30T01:13:17.160Z,13.88
2023-01-30T01:15:44.021Z,13.48
2023-01-30T01:18:10.785Z,12.90
2023-01-30T01:20:37.601Z,14.38
2023-01-30T01:23:04.383Z,13.20
2023-01-30T01:25:31.215Z,12.38
2023-01-30T01:27:57.962Z,12.90
2023-01-30T01:30:24.789Z,11.98
2023-01-30T01:32:51.529Z,12.10
2023-01-30T01:35:20.000Z,12.68
2023-01-30T01:37:47.220Z,12.73
2023-01-30T01:40:36.490Z,13.45
2023-01-30T01:43:14.747Z,12.93
2023-01-30T01:45:41.550Z,12.88
2023-01-30T01:48:12.828Z,13.02
2023-01-30T01:50:53.972Z,14.27
2023-01-30T01:53:21.970Z,14.00
2023-01-30T01:55:50.119Z,16.80
2023-01-30T01:58:25.780Z,14.23
2023-01-30T02:00:52.625Z,14.70
2023-01-30T02:03:23.078Z,13.70
2023-01-30T02:05:51.935Z,16.25
2023-01-30T02:08:39.559Z,15.10
2023-01-30T02:11:27.550Z,14.40
2023-01-30T02:13:54.311Z,14.45
2023-01-30T02:16:21.683Z,13.52
2023-01-30T02:18:48.495Z,15.15
2023-01-30T02:21:33.748Z,14.35
2023-01-30T02:25:11.396Z,16.15
2023-01-30T02:27:57.493Z,15.00
2023-01-30T02:30:47.962Z,16.13
2023-01-30T02:33:28.038Z,14.48
2023-01-30T02:36:13.771Z,14.50
2023-01-30T02:39:05.031Z,13.63
2023-01-30T02:41:59.226Z,14.63
2023-01-30T02:44:59.203Z,13.90
2023-01-30T02:47:39.121Z,14.10
2023-01-30T02:50:13.443Z,15.98
2023-01-30T02:52:40.464Z,17.45
2023-01-30T02:55:10.699Z,16.42
2023-01-30T02:57:38.625Z,16.08
2023-01-30T03:00:06.771Z,14.63
2023-01-30T03:02:50.743Z,17.33
2023-01-30T03:05:21.087Z,17.42
2023-01-30T03:08:03.857Z,16.45
2023-01-30T03:10:36.878Z,17.00
2023-01-30T03:13:28.714Z,15.63
2023-01-30T03:16:02.895Z,16.38
2023-01-30T03:18:29.730Z,15.60
2023-01-30T03:20:56.776Z,16.50
2023-01-30T03:23:23.616Z,16.58
2023-01-30T03:25:51.020Z,15.90
2023-01-30T03:28:19.554Z,16.73
2023-01-30T03:30:46.525Z,16.05
2023-01-30T03:33:14.278Z,16.58
2023-01-30T03:35:47.066Z,14.82
2023-01-30T03:38:14.723Z,15.48
2023-01-30T03:40:41.527Z,15.50
2023-01-30T03:43:09.257Z,15.40
2023-01-30T03:45:38.022Z,16.15
2023-01-30T03:48:05.522Z,16.02
2023-01-30T03:50:32.831Z,16.08
2023-01-30T03:53:00.687Z,16.08
2023-01-30T03:55:27.523Z,16.30
2023-01-30T03:57:56.551Z,17.75
2023-01-30T04:00:24.656Z,17.50
2023-01-30T04:02:52.224Z,17.52
2023-01-30T04:05:20.560Z,16.58
2023-01-30T04:07:58.459Z,16.98
2023-01-30T04:10:25.981Z,16.48
2023-01-30T04:12:53.035Z,16.52
2023-01-30T04:15:20.472Z,16.52
2023-01-30T04:17:52.880Z,18.80
2023-01-30T04:20:38.827Z,16.50
2023-01-30T04:23:05.713Z,16.63
2023-01-30T04:25:32.567Z,17.67
2023-01-30T04:28:00.461Z,18.30
2023-01-30T04:30:32.107Z,16.90
2023-01-30T04:33:21.663Z,17.08
2023-01-30T04:35:54.645Z,18.00
2023-01-30T04:38:22.018Z,18.00
2023-01-30T04:40:50.189Z,16.75
2023-01-30T04:43:17.812Z,16.40
2023-01-30T04:45:53.506Z,16.27
2023-01-30T04:48:20.681Z,16.70
2023-01-30T04:50:48.860Z,16.67
2023-01-30T04:53:16.256Z,16.33
2023-01-30T04:55:43.140Z,16.65
2023-01-30T04:58:10.014Z,16.83
2023-01-30T05:00:36.896Z,15.85
2023-01-30T05:03:03.973Z,14.73
2023-01-30T05:05:30.852Z,16.55
2023-01-30T05:07:57.648Z,15.68
2023-01-30T05:10:27.361Z,16.02
2023-01-30T05:12:54.107Z,16.17
2023-01-30T05:15:21.169Z,16.58
2023-01-30T05:18:13.071Z,15.40
2023-01-30T05:20:39.851Z,15.38
2023-01-30T05:27:07.403Z,14.90
2023-01-30T05:29:34.202Z,16.30
2023-01-30T05:32:01.012Z,14.85
2023-01-30T05:34:27.900Z,15.00
2023-01-30T05:36:54.689Z,14.57
2023-01-30T05:39:21.536Z,15.95
2023-01-30T05:41:48.341Z,15.52
2023-01-30T05:44:15.145Z,14.35
2023-01-30T05:46:41.966Z,15.10
2023-01-30T05:49:14.868Z,14.70
2023-01-30T05:51:41.679Z,14.05
2023-01-30T05:54:08.518Z,16.30
2023-01-30T05:56:35.525Z,15.27
2023-01-30T05:59:15.675Z,14.70
2023-01-30T06:01:42.564Z,13.80
2023-01-30T06:04:09.448Z,15.43
2023-01-30T06:06:36.324Z,14.55
2023-01-30T06:09:03.242Z,14.63
2023-01-30T06:11:30.345Z,16.33
2023-01-30T06:13:57.134Z,15.13
2023-01-30T06:16:23.997Z,15.30
2023-01-30T06:18:50.809Z,15.27
2023-01-30T06:21:17.593Z,15.43
2023-01-30T06:23:44.510Z,16.25
2023-01-30T06:26:11.391Z,16.00
2023-01-30T06:28:38.425Z,15.38
2023-01-30T06:31:08.516Z,14.98
2023-01-30T06:33:35.571Z,15.40
2023-01-30T06:36:02.461Z,14.38
2023-01-30T06:38:29.313Z,12.95
2023-01-30T06:40:56.110Z,14.45
2023-01-30T06:43:22.962Z,14.07
2023-01-30T06:45:49.820Z,14.10
2023-01-30T06:48:16.638Z,14.60
2023-01-30T06:50:43.827Z,16.17
2023-01-30T06:53:10.946Z,16.63
2023-01-30T06:55:38.428Z,15.45
2023-01-30T06:58:09.880Z,14.88
2023-01-30T07:00:36.959Z,16.92
2023-01-30T07:03:03.827Z,16.00
2023-01-30T07:05:30.720Z,14.90
2023-01-30T07:07:57.532Z,14.75
2023-01-30T07:10:26.170Z,15.05
2023-01-30T07:12:53.589Z,15.00
2023-01-30T07:15:20.693Z,15.32
2023-01-30T07:17:47.625Z,13.82
2023-01-30T07:20:14.502Z,15.43
2023-01-30T07:22:41.279Z,15.27
2023-01-30T07:25:08.514Z,15.68
2023-01-30T07:27:35.357Z,13.93
2023-01-30T07:30:02.658Z,14.93
2023-01-30T07:32:30.049Z,14.70
2023-01-30T07:34:56.886Z,15.18
2023-01-30T07:37:23.722Z,15.55
2023-01-30T07:39:50.560Z,15.00
2023-01-30T07:42:17.425Z,16.27
2023-01-30T07:44:44.302Z,15.63
2023-01-30T07:47:11.105Z,18.85
2023-01-30T07:49:37.989Z,17.08
2023-01-30T07:52:05.029Z,19.23
2023-01-30T07:54:31.796Z,17.35
2023-01-30T07:56:58.568Z,22.90
2023-01-30T07:59:25.421Z,18.02
2023-01-30T08:01:52.212Z,14.90
2023-01-30T08:04:19.087Z,16.13
2023-01-30T08:06:46.036Z,17.48
2023-01-30T08:09:12.824Z,17.13
2023-01-30T08:11:39.656Z,15.90
2023-01-30T08:14:06.607Z,15.70
2023-01-30T08:16:34.155Z,22.90
2023-01-30T08:19:01.100Z,19.38
2023-01-30T08:21:28.223Z,15.93
2023-01-30T08:23:55.082Z,17.95
2023-01-30T08:26:21.954Z,16.08
2023-01-30T08:28:48.800Z,15.77
2023-01-30T08:31:16.015Z,17.50
2023-01-30T08:33:43.001Z,20.67
2023-01-30T08:36:09.857Z,15.43
2023-01-30T08:38:36.955Z,17.67
2023-01-30T08:41:08.180Z,14.75
2023-01-30T08:43:35.200Z,15.80
2023-01-30T08:46:02.191Z,16.52
2023-01-30T08:48:34.124Z,16.17
2023-01-30T08:51:06.779Z,16.02
2023-01-30T08:53:33.663Z,16.45
2023-01-30T08:56:00.470Z,16.38
2023-01-30T08:58:27.266Z,17.00
2023-01-30T09:00:54.070Z,17.30
2023-01-30T09:03:20.891Z,16.92
2023-01-30T09:05:47.677Z,17.15
2023-01-30T09:08:14.479Z,17.65
2023-01-30T09:10:41.270Z,16.15
2023-01-30T09:13:09.698Z,16.80
2023-01-30T09:15:37.614Z,16.30
2023-01-30T09:18:05.122Z,16.77
2023-01-30T09:20:32.033Z,16.77
2023-01-30T09:22:58.873Z,16.83
2023-01-30T09:25:25.729Z,16.73
2023-01-30T09:27:52.851Z,16.65
2023-01-30T09:30:20.296Z,16.50
2023-01-30T09:32:48.210Z,19.10
2023-01-30T09:35:15.215Z,17.13
2023-01-30T09:37:52.481Z,18.15
2023-01-30T09:40:24.178Z,16.92
2023-01-30T09:43:13.426Z,17.88
2023-01-30T09:46:09.664Z,16.60
2023-01-30T09:48:44.634Z,16.55
2023-01-30T09:51:13.771Z,16.45
2023-01-30T09:53:55.104Z,16.52
2023-01-30T09:56:21.878Z,17.17
2023-01-30T09:58:54.699Z,16.15
2023-01-30T10:01:24.010Z,17.05
2023-01-30T10:04:11.074Z,16.67
2023-01-30T10:06:43.596Z,14.95
2023-01-30T10:09:30.732Z,15.23
2023-01-30T10:12:16.437Z,15.23
2023-01-30T10:15:05.448Z,15.57
2023-01-30T10:17:46.771Z,15.77
2023-01-30T10:20:16.612Z,16.75
2023-01-30T10:22:52.275Z,16.23
2023-01-30T10:25:34.427Z,15.30
2023-01-30T10:28:06.495Z,16.70
2023-01-30T10:30:33.987Z,17.23
2023-01-30T10:33:22.631Z,15.75
2023-01-30T10:35:57.970Z,14.95
2023-01-30T10:38:41.599Z,14.18
2023-01-30T10:41:20.982Z,15.10
2023-01-30T10:43:54.711Z,14.52
2023-01-30T10:46:33.557Z,12.82
2023-01-30T10:49:06.544Z,15.40
2023-01-30T10:51:46.235Z,15.45
2023-01-30T10:54:34.098Z,16.20
2023-01-30T10:57:07.950Z,14.90
2023-01-30T11:00:05.706Z,15.68
2023-01-30T11:02:36.127Z,15.85
2023-01-30T11:05:24.369Z,14.93
2023-01-30T11:07:51.288Z,15.38
2023-01-30T11:10:19.975Z,15.48
2023-01-30T11:12:46.890Z,15.40
2023-01-30T11:15:13.821Z,14.38
2023-01-30T11:17:42.761Z,14.52
2023-01-30T11:20:41.844Z,14.45
2023-01-30T11:23:22.257Z,15.23
2023-01-30T11:26:10.595Z,14.80
2023-01-30T11:28:42.402Z,15.25
2023-01-30T11:31:39.925Z,13.48
2023-01-30T11:34:15.468Z,14.10
2023-01-30T11:36:42.423Z,14.73
2023-01-30T11:39:17.605Z,15.13
2023-01-30T11:41:53.909Z,16.23
2023-01-30T11:44:26.404Z,14.85
2023-01-30T11:46:53.204Z,15.52
2023-01-30T11:49:45.915Z,15.48
2023-01-30T11:52:08.711Z,14.05
2023-01-30T11:54:43.064Z,14.43
2023-01-30T11:57:17.478Z,14.27
2023-01-30T12:00:20.402Z,15.10
2023-01-30T12:02:48.308Z,14.50
2023-01-30T12:05:45.382Z,16.00
2023-01-30T12:08:31.162Z,15.77
2023-01-30T12:11:07.634Z,13.82
2023-01-30T12:13:38.838Z,14.55
2023-01-30T12:16:25.460Z,14.20
2023-01-30T12:19:10.401Z,15.57
2023-01-30T12:21:56.064Z,15.13
2023-01-30T12:25:01.700Z,14.80
2023-01-30T12:27:49.055Z,13.30
2023-01-30T12:30:34.905Z,14.15
2023-01-30T12:33:03.996Z,12.35
2023-01-30T12:35:47.809Z,13.60
2023-01-30T12:38:19.097Z,12.93
2023-01-30T12:41:08.686Z,12.75
2023-01-30T12:43:42.597Z,14.50
2023-01-30T12:46:25.934Z,15.00
2023-01-30T12:49:34.178Z,15.00
2023-01-30T12:52:05.395Z,14.32
2023-01-30T12:54:54.657Z,13.45
2023-01-30T13:02:26.433Z,16.70
2023-01-30T13:05:04.582Z,17.67
2023-01-30T13:07:39.274Z,58.88
2023-01-30T13:10:28.528Z,16.33
2023-01-30T13:13:12.095Z,13.98
2023-01-30T13:18:21.044Z,12.57
2023-01-30T13:21:06.730Z,11.90
2023-01-30T13:23:53.983Z,12.32
2023-01-30T13:26:27.086Z,11.90
2023-01-30T13:28:57.531Z,11.75
2023-01-30T13:31:25.972Z,11.93
2023-01-30T13:34:24.984Z,12.38
2023-01-30T13:36:54.527Z,11.52
2023-01-30T13:39:32.842Z,11.50
2023-01-30T13:41:59.753Z,13.93
2023-01-30T13:44:29.133Z,14.55
2023-01-30T13:46:56.154Z,13.48
2023-01-30T13:50:08.671Z,14.27
2023-01-30T13:52:44.754Z,13.50
2023-01-30T13:55:26.406Z,14.65
2023-01-30T13:58:02.320Z,14.80
2023-01-30T14:00:33.470Z,12.77
2023-01-30T14:03:03.436Z,13.00
2023-01-30T14:05:52.749Z,15.70
2023-01-30T14:08:25.528Z,14.20
2023-01-30T14:10:52.406Z,12.05
2023-01-30T14:13:19.197Z,12.95
2023-01-30T14:16:01.064Z,15.30
2023-01-30T14:18:31.463Z,14.27
2023-01-30T14:21:24.550Z,13.77
2023-01-30T14:23:56.442Z,13.38
2023-01-30T14:26:48.307Z,14.15
2023-01-30T14:29:37.366Z,13.23
2023-01-30T14:32:13.811Z,14.35
2023-01-30T14:34:56.023Z,23.85
2023-01-30T14:37:37.920Z,18.73
2023-01-30T14:40:27.392Z,16.25
2023-01-30T14:43:12.700Z,13.98
2023-01-30T14:45:49.085Z,14.63
2023-01-30T14:48:40.292Z,14.77
2023-01-30T14:54:10.875Z,15.55
2023-01-30T14:56:43.689Z,17.17
2023-01-30T14:59:22.978Z,18.13
2023-01-30T15:02:13.278Z,16.33
2023-01-30T15:04:40.114Z,17.20
2023-01-30T15:07:29.177Z,15.13
2023-01-30T15:10:03.001Z,15.45
2023-01-30T15:13:07.672Z,13.20
2023-01-30T15:15:56.526Z,13.30
2023-01-30T15:18:48.946Z,15.13
2023-01-30T15:21:53.120Z,12.50
2023-01-30T15:27:24.265Z,10.63
2023-01-30T15:30:16.868Z,10.25
2023-01-30T15:32:44.323Z,11.98
2023-01-30T15:35:17.778Z,13.85
2023-01-30T15:37:54.994Z,13.05
2023-01-30T15:40:22.751Z,13.18
2023-01-30T15:43:01.871Z,13.38
2023-01-30T15:45:51.057Z,13.85
2023-01-30T15:48:30.763Z,12.60
2023-01-30T15:50:59.032Z,13.65
2023-01-30T15:53:31.148Z,13.77
2023-01-30T15:55:59.180Z,12.88
2023-01-30T15:58:25.937Z,13.88
2023-01-30T16:00:54.885Z,12.77
2023-01-30T16:03:26.445Z,11.48
2023-01-30T16:05:55.362Z,10.90
2023-01-30T16:08:26.971Z,10.23
2023-01-30T16:10:54.008Z,10.40
2023-01-30T16:13:22.529Z,12.10
2023-01-30T16:16:01.351Z,12.25
2023-01-30T16:18:38.686Z,10.65
2023-01-30T16:21:10.820Z,10.52
2023-01-30T16:23:41.886Z,10.50
2023-01-30T16:26:13.641Z,11.30
2023-01-30T16:28:40.501Z,10.25
2023-01-30T16:31:08.624Z,14.20
2023-01-30T16:33:38.238Z,12.45
2023-01-30T16:36:25.378Z,12.93
2023-01-30T16:38:52.689Z,13.27
2023-01-30T16:41:36.183Z,14.48
2023-01-30T16:46:59.281Z,11.70
2023-01-30T16:49:30.318Z,11.07
2023-01-30T16:52:18.763Z,12.70
2023-01-30T16:54:50.720Z,14.00
2023-01-30T16:57:36.324Z,13.60
2023-01-30T17:00:08.171Z,12.13
2023-01-30T17:02:39.812Z,9.00
2023-01-30T17:05:17.623Z,10.15
2023-01-30T17:07:44.451Z,8.45
2023-01-30T17:10:39.147Z,8.32
2023-01-30T17:13:34.626Z,9.05
2023-01-30T17:16:46.945Z,8.45
2023-01-30T17:19:14.420Z,8.10
2023-01-30T17:21:48.288Z,10.10
2023-01-30T17:24:19.842Z,12.02
2023-01-30T17:26:48.481Z,14.45
2023-01-30T17:29:28.942Z,10.52
2023-01-30T17:32:00.868Z,9.10
2023-01-30T17:34:28.872Z,9.25
2023-01-30T17:36:56.197Z,10.13
2023-01-30T17:39:25.635Z,8.93
2023-01-30T17:41:53.266Z,8.13
2023-01-30T17:44:20.067Z,7.75
2023-01-30T17:46:49.902Z,8.75
2023-01-30T17:49:17.990Z,7.95
2023-01-30T17:51:44.978Z,10.32
2023-01-30T17:54:12.254Z,8.70
2023-01-30T17:56:42.579Z,21.75
2023-01-30T17:59:17.483Z,9.85
2023-01-30T18:01:45.569Z,11.27
2023-01-30T18:04:12.552Z,10.13
2023-01-30T18:07:06.324Z,7.97
2023-01-30T18:16:30.958Z,9.65
2023-01-30T18:23:20.172Z,8.52
2023-01-30T18:25:47.272Z,7.63
2023-01-30T18:28:14.024Z,8.32
2023-01-30T18:30:40.806Z,8.18
2023-01-30T18:33:07.677Z,7.90
2023-01-30T18:35:34.537Z,7.45
2023-01-30T18:38:02.886Z,6.72
2023-01-30T18:40:29.939Z,7.53
2023-01-30T18:42:56.783Z,8.65
2023-01-30T18:45:23.556Z,7.13
2023-01-30T18:47:52.663Z,10.00
2023-01-30T18:50:19.885Z,8.30
2023-01-30T18:52:48.053Z,8.20
2023-01-30T18:55:14.960Z,9.25
2023-01-30T18:57:41.715Z,9.40
2023-01-30T19:00:09.559Z,9.98
2023-01-30T19:02:36.522Z,9.18
2023-01-30T19:05:03.546Z,10.75
2023-01-30T19:07:30.290Z,9.48
2023-01-30T19:09:57.067Z,8.93
2023-01-30T19:12:42.484Z,8.13
2023-01-30T19:15:09.691Z,9.18
2023-01-30T19:17:36.458Z,8.63
2023-01-30T19:20:08.534Z,10.00
2023-01-30T19:22:35.283Z,14.52
2023-01-30T19:25:02.199Z,11.50
2023-01-30T19:27:28.994Z,10.55
2023-01-30T19:29:55.733Z,9.35
2023-01-30T19:32:22.505Z,9.85
2023-01-30T19:34:50.978Z,9.63
2023-01-30T19:37:17.791Z,10.20
2023-01-30T19:39:44.532Z,10.23
2023-01-30T19:42:11.383Z,8.80
2023-01-30T19:44:40.914Z,9.48
2023-01-30T19:47:07.674Z,8.60
2023-01-30T19:49:35.900Z,10.45
2023-01-30T19:52:03.483Z,9.13
2023-01-30T19:54:31.251Z,11.50
2023-01-30T19:57:00.067Z,11.65
2023-01-30T19:59:26.903Z,9.77
2023-01-30T20:01:53.673Z,9.88
2023-01-30T20:04:20.447Z,10.88
2023-01-30T20:06:49.820Z,13.57
2023-01-30T20:09:16.765Z,12.63
2023-01-30T20:11:43.704Z,12.65
2023-01-30T20:14:10.558Z,14.30
2023-01-30T20:16:37.461Z,11.70
2023-01-30T20:19:06.311Z,12.20
2023-01-30T20:21:33.502Z,11.40
2023-01-30T20:24:00.972Z,10.68
2023-01-30T20:26:29.841Z,9.63
2023-01-30T20:28:57.290Z,10.02
2023-01-30T20:31:25.871Z,10.63
2023-01-30T20:33:55.668Z,11.13
2023-01-30T20:36:22.423Z,10.20
2023-01-30T20:38:49.440Z,10.68
2023-01-30T20:41:17.771Z,10.43
2023-01-30T20:43:49.135Z,10.75
2023-01-30T20:46:20.776Z,10.77
2023-01-30T20:48:48.053Z,9.00
2023-01-30T20:51:26.043Z,10.93
2023-01-30T20:53:53.711Z,9.85
2023-01-30T20:56:20.877Z,11.20
2023-01-30T20:58:47.631Z,12.32
2023-01-30T21:01:18.026Z,12.05
2023-01-30T21:03:45.697Z,10.38
2023-01-30T21:06:12.481Z,10.98
2023-01-30T21:08:39.637Z,10.05
2023-01-30T21:11:14.214Z,13.65
2023-01-30T21:13:41.134Z,11.90
2023-01-30T21:16:11.505Z,11.93
2023-01-30T21:18:39.674Z,11.35
2023-01-30T21:21:07.555Z,11.10
2023-01-30T21:23:34.424Z,11.82
2023-01-30T21:26:05.998Z,9.45
2023-01-30T21:28:32.840Z,9.75
2023-01-30T21:31:18.086Z,10.13
2023-01-30T21:33:45.051Z,9.90
2023-01-30T21:36:12.428Z,10.27
2023-01-30T21:38:57.855Z,10.57
2023-01-30T21:41:49.266Z,10.48
2023-01-30T21:44:16.117Z,8.75
2023-01-30T21:46:47.557Z,10.10
2023-01-30T21:49:17.715Z,9.93
2023-01-30T21:51:45.571Z,9.05
2023-01-30T21:54:12.710Z,9.65
2023-01-30T21:56:40.139Z,9.20
2023-01-30T21:59:07.135Z,8.52
2023-01-30T22:01:34.640Z,8.93
2023-01-30T22:04:06.595Z,9.55
2023-01-30T22:06:33.410Z,8.82
2023-01-30T22:09:00.972Z,9.02
2023-01-30T22:11:28.205Z,9.15
2023-01-30T22:13:55.312Z,8.63
2023-01-30T22:16:26.792Z,9.55
2023-01-30T22:18:58.183Z,9.73
2023-01-30T22:21:26.700Z,9.13
2023-01-30T22:23:54.016Z,9.80
2023-01-30T22:26:22.999Z,8.55
2023-01-30T22:28:54.325Z,8.23
2023-01-30T22:31:21.523Z,8.02
2023-01-30T22:33:53.728Z,8.70
2023-01-30T22:36:21.075Z,8.07
2023-01-30T22:38:48.757Z,7.35
2023-01-30T22:41:18.431Z,7.72
2023-01-30T22:43:46.596Z,8.00
2023-01-30T22:46:13.795Z,7.63
2023-01-30T22:48:40.708Z,7.88
2023-01-30T22:51:13.465Z,7.28
2023-01-30T22:53:44.520Z,8.55
2023-01-30T22:56:16.493Z,7.97
2023-01-30T22:58:43.531Z,7.10
2023-01-30T23:01:21.633Z,8.00
2023-01-30T23:03:52.589Z,7.45
2023-01-30T23:06:19.399Z,7.72
2023-01-30T23:08:47.103Z,7.88
2023-01-30T23:11:19.239Z,7.70
2023-01-30T23:13:47.864Z,8.98
2023-01-30T23:16:14.913Z,7.50
2023-01-30T23:18:58.189Z,7.97
2023-01-30T23:21:29.126Z,7.82
2023-01-30T23:24:00.629Z,7.20
2023-01-30T23:26:31.588Z,7.57
2023-01-30T23:28:58.498Z,7.93
2023-01-30T23:31:26.146Z,7.43
2023-01-30T23:33:57.466Z,7.47
2023-01-30T23:36:24.309Z,8.07
2023-01-30T23:38:52.049Z,7.95
2023-01-30T23:41:21.225Z,8.15
2023-01-30T23:43:48.180Z,9.23
2023-01-30T23:46:18.776Z,9.38
2023-01-30T23:48:46.712Z,8.10
2023-01-30T23:51:14.469Z,7.45
2023-01-30T23:53:41.545Z,8.20
2023-01-30T23:56:08.510Z,8.07
2023-01-30T23:58:35.429Z,7.68
